Poplar, Minnesota
Current Conditions -  °F | °C
As of 3:54 AM on Sunday 21 Dec 2014 (Local Time) from KSAZ Reporting Station
Haze Haze  
Wind Chill: 19°   Ceiling: 500
Heat Index: 28°   Visibility: 5mi
Dew Point: 28°   Wind: 10mph
Humidity: 100%   Direction: 170°S
Pressure: 29.87"   Gusts: 18mph
Location:  46.4416°N, 94.6389°W
Report Text: KSAZ 210954Z AUTO 17009G16KT 5SM BR OVC005 M02/M02 A2987 RMK AO2
Loading
Personal Weather Stations






























Interactive Weather Map New forecast layout! Learn more

10-Day Weather Forecast

Advertisements
Track Severe Weather on mobile